sensor_id;sensor_type;location;lat;lon;timestamp;pressure;altitude;pressure_sealevel;temperature;humidity
49979;BME280;35869;50.990;6.962;2023-02-12T00:04:34;103507.88;;;6.86;100.00
49979;BME280;35869;50.990;6.962;2023-02-12T00:09:38;103507.91;;;6.89;100.00
49979;BME280;35869;50.990;6.962;2023-02-12T00:14:38;103505.22;;;6.85;100.00
49979;BME280;35869;50.990;6.962;2023-02-12T00:19:38;103508.69;;;6.85;100.00
49979;BME280;35869;50.990;6.962;2023-02-12T00:24:39;103506.94;;;6.84;100.00
49979;BME280;35869;50.990;6.962;2023-02-12T00:29:39;103513.81;;;6.82;100.00
49979;BME280;35869;50.990;6.962;2023-02-12T00:34:39;103512.13;;;6.86;100.00
49979;BME280;35869;50.990;6.962;2023-02-12T00:39:40;103507.81;;;6.85;100.00
49979;BME280;35869;50.990;6.962;2023-02-12T00:44:40;103493.13;;;6.82;100.00
49979;BME280;35869;50.990;6.962;2023-02-12T00:49:40;103500.03;;;6.83;100.00
49979;BME280;35869;50.990;6.962;2023-02-12T00:54:41;103497.47;;;6.83;100.00
49979;BME280;35869;50.990;6.962;2023-02-12T00:59:41;103496.59;;;6.83;100.00
49979;BME280;35869;50.990;6.962;2023-02-12T01:04:41;103498.28;;;6.81;100.00
49979;BME280;35869;50.990;6.962;2023-02-12T01:09:41;103504.31;;;6.81;100.00
49979;BME280;35869;50.990;6.962;2023-02-12T01:14:42;103500.81;;;6.78;100.00
49979;BME280;35869;50.990;6.962;2023-02-12T01:19:42;103495.66;;;6.79;100.00
49979;BME280;35869;50.990;6.962;2023-02-12T01:24:42;103499.94;;;6.77;100.00
49979;BME280;35869;50.990;6.962;2023-02-12T01:29:42;103501.66;;;6.77;100.00
49979;BME280;35869;50.990;6.962;2023-02-12T01:34:42;103494.75;;;6.76;100.00
49979;BME280;35869;50.990;6.962;2023-02-12T01:39:43;103499.06;;;6.75;100.00
49979;BME280;35869;50.990;6.962;2023-02-12T01:45:28;103499.00;;;6.72;100.00
49979;BME280;35869;50.990;6.962;2023-02-12T01:50:12;103490.34;;;6.70;100.00
49979;BME280;35869;50.990;6.962;2023-02-12T01:55:14;103495.53;;;6.70;100.00
49979;BME280;35869;50.990;6.962;2023-02-12T02:00:24;103490.28;;;6.67;100.00
49979;BME280;35869;50.990;6.962;2023-02-12T02:05:38;103490.28;;;6.67;100.00
49979;BME280;35869;50.990;6.962;2023-02-12T02:10:40;103492.88;;;6.65;100.00
49979;BME280;35869;50.990;6.962;2023-02-12T02:15:43;103489.41;;;6.65;100.00
49979;BME280;35869;50.990;6.962;2023-02-12T02:32:05;103487.63;;;6.61;100.00
49979;BME280;35869;50.990;6.962;2023-02-12T02:37:19;103478.13;;;6.60;100.00
49979;BME280;35869;50.990;6.962;2023-02-12T02:42:38;103479.84;;;6.59;100.00
49979;BME280;35869;50.990;6.962;2023-02-12T02:48:23;103475.53;;;6.58;100.00
49979;BME280;35869;50.990;6.962;2023-02-12T02:53:36;103480.63;;;6.55;100.00
49979;BME280;35869;50.990;6.962;2023-02-12T02:58:46;103479.94;;;6.64;100.00
49979;BME280;35869;50.990;6.962;2023-02-12T03:03:52;103482.34;;;6.56;100.00
49979;BME280;35869;50.990;6.962;2023-02-12T03:08:57;103483.25;;;6.57;100.00
49979;BME280;35869;50.990;6.962;2023-02-12T03:14:05;103486.66;;;6.56;100.00
49979;BME280;35869;50.990;6.962;2023-02-12T03:19:16;103481.50;;;6.56;100.00
49979;BME280;35869;50.990;6.962;2023-02-12T03:24:23;103481.50;;;6.56;100.00
49979;BME280;35869;50.990;6.962;2023-02-12T03:29:25;103472.00;;;6.53;100.00
49979;BME280;35869;50.990;6.962;2023-02-12T03:39:54;103473.69;;;6.51;100.00
49979;BME280;35869;50.990;6.962;2023-02-12T03:45:03;103472.78;;;6.51;100.00
49979;BME280;35869;50.990;6.962;2023-02-12T03:50:16;103471.94;;;6.50;100.00
49979;BME280;35869;50.990;6.962;2023-02-12T03:55:18;103469.31;;;6.49;100.00
49979;BME280;35869;50.990;6.962;2023-02-12T04:00:21;103466.75;;;6.50;100.00
49979;BME280;35869;50.990;6.962;2023-02-12T04:05:25;103470.25;;;6.52;100.00
49979;BME280;35869;50.990;6.962;2023-02-12T04:10:31;103486.56;;;6.50;100.00
49979;BME280;35869;50.990;6.962;2023-02-12T04:15:59;103482.25;;;6.49;100.00
49979;BME280;35869;50.990;6.962;2023-02-12T04:32:27;103501.19;;;6.48;100.00
49979;BME280;35869;50.990;6.962;2023-02-12T04:37:43;103508.91;;;6.46;100.00
49979;BME280;35869;50.990;6.962;2023-02-12T04:42:47;103510.66;;;6.49;100.00
49979;BME280;35869;50.990;6.962;2023-02-12T04:47:48;103507.19;;;6.47;100.00
49979;BME280;35869;50.990;6.962;2023-02-12T04:52:48;103507.16;;;6.45;100.00
49979;BME280;35869;50.990;6.962;2023-02-12T04:57:48;103506.28;;;6.45;100.00
49979;BME280;35869;50.990;6.962;2023-02-12T05:02:48;103508.94;;;6.48;100.00
49979;BME280;35869;50.990;6.962;2023-02-12T05:07:49;103499.34;;;6.42;100.00
49979;BME280;35869;50.990;6.962;2023-02-12T05:12:52;103511.44;;;6.45;100.00
49979;BME280;35869;50.990;6.962;2023-02-12T05:17:53;103502.91;;;6.49;100.00
49979;BME280;35869;50.990;6.962;2023-02-12T05:22:53;103507.13;;;6.44;100.00
49979;BME280;35869;50.990;6.962;2023-02-12T05:27:53;103507.97;;;6.43;100.00
49979;BME280;35869;50.990;6.962;2023-02-12T05:32:53;103507.97;;;6.43;100.00
49979;BME280;35869;50.990;6.962;2023-02-12T05:37:53;103505.38;;;6.43;100.00
49979;BME280;35869;50.990;6.962;2023-02-12T05:42:54;103511.38;;;6.40;100.00
49979;BME280;35869;50.990;6.962;2023-02-12T05:47:55;103517.38;;;6.39;100.00
49979;BME280;35869;50.990;6.962;2023-02-12T05:52:56;103522.59;;;6.40;100.00
49979;BME280;35869;50.990;6.962;2023-02-12T05:57:56;103528.53;;;6.38;100.00
49979;BME280;35869;50.990;6.962;2023-02-12T06:02:56;103529.41;;;6.38;100.00
49979;BME280;35869;50.990;6.962;2023-02-12T06:07:56;103531.19;;;6.39;100.00
49979;BME280;35869;50.990;6.962;2023-02-12T06:12:56;103526.13;;;6.46;100.00
49979;BME280;35869;50.990;6.962;2023-02-12T06:17:57;103530.28;;;6.39;100.00
49979;BME280;35869;50.990;6.962;2023-02-12T06:22:57;103531.19;;;6.39;100.00
49979;BME280;35869;50.990;6.962;2023-02-12T06:27:57;103528.53;;;6.36;100.00
49979;BME280;35869;50.990;6.962;2023-02-12T06:32:57;103532.84;;;6.37;100.00
49979;BME280;35869;50.990;6.962;2023-02-12T06:37:58;103532.06;;;6.40;100.00
49979;BME280;35869;50.990;6.962;2023-02-12T06:42:58;103534.53;;;6.35;100.00
49979;BME280;35869;50.990;6.962;2023-02-12T06:47:58;103537.09;;;6.34;100.00
49979;BME280;35869;50.990;6.962;2023-02-12T06:52:58;103542.28;;;6.35;100.00
49979;BME280;35869;50.990;6.962;2023-02-12T06:57:59;103543.13;;;6.34;100.00
49979;BME280;35869;50.990;6.962;2023-02-12T07:02:59;103549.09;;;6.32;100.00
49979;BME280;35869;50.990;6.962;2023-02-12T07:07:59;103559.44;;;6.32;100.00
49979;BME280;35869;50.990;6.962;2023-02-12T07:12:59;103562.00;;;6.32;100.00
49979;BME280;35869;50.990;6.962;2023-02-12T07:18:00;103571.50;;;6.33;100.00
49979;BME280;35869;50.990;6.962;2023-02-12T07:23:00;103571.56;;;6.34;100.00
49979;BME280;35869;50.990;6.962;2023-02-12T07:28:00;103571.47;;;6.31;100.00
49979;BME280;35869;50.990;6.962;2023-02-12T07:33:00;103580.16;;;6.35;100.00
49979;BME280;35869;50.990;6.962;2023-02-12T07:38:00;103578.44;;;6.34;100.00
49979;BME280;35869;50.990;6.962;2023-02-12T07:43:01;103586.19;;;6.35;100.00
49979;BME280;35869;50.990;6.962;2023-02-12T07:48:01;103591.41;;;6.37;100.00
49979;BME280;35869;50.990;6.962;2023-02-12T07:53:01;103593.19;;;6.39;100.00
49979;BME280;35869;50.990;6.962;2023-02-12T07:58:01;103594.91;;;6.40;100.00
49979;BME280;35869;50.990;6.962;2023-02-12T08:03:01;103602.66;;;6.40;100.00
49979;BME280;35869;50.990;6.962;2023-02-12T08:08:02;103597.63;;;6.47;100.00
49979;BME280;35869;50.990;6.962;2023-02-12T08:13:02;103603.69;;;6.50;100.00
49979;BME280;35869;50.990;6.962;2023-02-12T08:18:02;103603.75;;;6.53;100.00
49979;BME280;35869;50.990;6.962;2023-02-12T08:23:02;103609.91;;;6.58;100.00
49979;BME280;35869;50.990;6.962;2023-02-12T08:28:03;103611.81;;;6.68;100.00
49979;BME280;35869;50.990;6.962;2023-02-12T08:33:03;103607.47;;;6.67;100.00
49979;BME280;35869;50.990;6.962;2023-02-12T08:38:03;103615.41;;;6.78;100.00
49979;BME280;35869;50.990;6.962;2023-02-12T08:43:04;103613.00;;;6.87;100.00
49979;BME280;35869;50.990;6.962;2023-02-12T08:48:04;103618.31;;;6.95;100.00
49979;BME280;35869;50.990;6.962;2023-02-12T08:53:04;103614.00;;;6.95;100.00
49979;BME280;35869;50.990;6.962;2023-02-12T08:58:04;103613.31;;;7.04;100.00
49979;BME280;35869;50.990;6.962;2023-02-12T09:03:04;103610.75;;;7.07;100.00
49979;BME280;35869;50.990;6.962;2023-02-12T09:08:05;103605.75;;;7.16;100.00
49979;BME280;35869;50.990;6.962;2023-02-12T09:13:06;103610.09;;;7.19;100.00
49979;BME280;35869;50.990;6.962;2023-02-12T09:18:06;103615.63;;;7.42;100.00
49979;BME280;35869;50.990;6.962;2023-02-12T09:23:09;103619.97;;;7.44;100.00
49979;BME280;35869;50.990;6.962;2023-02-12T09:28:10;103617.44;;;7.47;100.00
49979;BME280;35869;50.990;6.962;2023-02-12T09:33:11;103616.75;;;7.61;100.00
49979;BME280;35869;50.990;6.962;2023-02-12T09:38:11;103614.22;;;7.64;100.00
49979;BME280;35869;50.990;6.962;2023-02-12T09:43:51;103615.09;;;7.64;100.00
49979;BME280;35869;50.990;6.962;2023-02-12T09:49:08;103613.63;;;7.83;100.00
49979;BME280;35869;50.990;6.962;2023-02-12T09:54:18;103613.00;;;8.02;100.00
49979;BME280;35869;50.990;6.962;2023-02-12T09:59:27;103624.25;;;8.03;100.00
49979;BME280;35869;50.990;6.962;2023-02-12T10:04:29;103620.06;;;8.13;100.00
49979;BME280;35869;50.990;6.962;2023-02-12T10:09:54;103620.31;;;8.34;100.00
49979;BME280;35869;50.990;6.962;2023-02-12T10:30:48;103626.78;;;8.68;100.00
49979;BME280;35869;50.990;6.962;2023-02-12T10:35:54;103624.28;;;8.79;100.00
49979;BME280;35869;50.990;6.962;2023-02-12T10:40:57;103619.22;;;8.91;100.00
49979;BME280;35869;50.990;6.962;2023-02-12T10:45:57;103621.94;;;9.05;100.00
49979;BME280;35869;50.990;6.962;2023-02-12T10:56:23;103609.97;;;9.21;100.00
49979;BME280;35869;50.990;6.962;2023-02-12T11:01:26;103604.88;;;9.34;100.00
49979;BME280;35869;50.990;6.962;2023-02-12T11:06:29;103609.16;;;9.29;100.00
49979;BME280;35869;50.990;6.962;2023-02-12T11:11:36;103610.09;;;9.39;100.00
49979;BME280;35869;50.990;6.962;2023-02-12T11:16:44;103595.50;;;9.59;99.84
49979;BME280;35869;50.990;6.962;2023-02-12T11:21:50;103596.41;;;9.66;99.50
49979;BME280;35869;50.990;6.962;2023-02-12T11:26:50;103585.03;;;9.44;100.00
49979;BME280;35869;50.990;6.962;2023-02-12T11:32:03;103584.19;;;9.47;100.00
49979;BME280;35869;50.990;6.962;2023-02-12T11:37:15;103578.25;;;9.71;100.00
49979;BME280;35869;50.990;6.962;2023-02-12T11:42:21;103565.38;;;9.94;98.99
49979;BME280;35869;50.990;6.962;2023-02-12T11:47:31;103564.44;;;9.81;98.15
49979;BME280;35869;50.990;6.962;2023-02-12T11:52:36;103560.16;;;9.86;98.20
49979;BME280;35869;50.990;6.962;2023-02-12T11:57:50;103558.47;;;10.00;97.05
49979;BME280;35869;50.990;6.962;2023-02-12T12:03:31;103562.84;;;10.10;97.25
49979;BME280;35869;50.990;6.962;2023-02-12T12:08:40;103548.13;;;10.09;98.27
49979;BME280;35869;50.990;6.962;2023-02-12T12:13:49;103547.31;;;10.29;96.21
49979;BME280;35869;50.990;6.962;2023-02-12T12:18:58;103546.44;;;10.24;96.99
49979;BME280;35869;50.990;6.962;2023-02-12T12:24:13;103527.34;;;10.20;94.96
49979;BME280;35869;50.990;6.962;2023-02-12T12:29:23;103527.41;;;10.35;96.04
49979;BME280;35869;50.990;6.962;2023-02-12T12:34:26;103526.56;;;10.38;97.17
49979;BME280;35869;50.990;6.962;2023-02-12T12:39:34;103517.00;;;10.34;98.10
49979;BME280;35869;50.990;6.962;2023-02-12T13:00:51;103486.66;;;10.73;96.56
49979;BME280;35869;50.990;6.962;2023-02-12T13:06:12;103472.78;;;10.87;92.91
49979;BME280;35869;50.990;6.962;2023-02-12T13:12:01;103470.19;;;10.87;93.20
49979;BME280;35869;50.990;6.962;2023-02-12T13:17:29;103478.00;;;10.86;95.79
49979;BME280;35869;50.990;6.962;2023-02-12T13:22:43;103474.53;;;10.93;93.85
49979;BME280;35869;50.990;6.962;2023-02-12T13:27:48;103463.22;;;11.00;94.10
49979;BME280;35869;50.990;6.962;2023-02-12T13:33:06;103457.19;;;10.92;95.13
49979;BME280;35869;50.990;6.962;2023-02-12T13:38:15;103458.88;;;11.05;93.86
49979;BME280;35869;50.990;6.962;2023-02-12T13:59:53;103435.44;;;11.14;95.87
49979;BME280;35869;50.990;6.962;2023-02-12T14:04:58;103431.06;;;11.13;96.53
49979;BME280;35869;50.990;6.962;2023-02-12T14:10:02;103428.50;;;11.15;96.00
49979;BME280;35869;50.990;6.962;2023-02-12T14:25:38;103420.69;;;11.12;98.74
49979;BME280;35869;50.990;6.962;2023-02-12T14:30:40;103427.63;;;11.14;97.74
49979;BME280;35869;50.990;6.962;2023-02-12T14:35:42;103435.44;;;11.10;98.63
49979;BME280;35869;50.990;6.962;2023-02-12T14:40:44;103437.19;;;11.06;98.84
49979;BME280;35869;50.990;6.962;2023-02-12T14:45:45;103436.31;;;11.01;99.07
49979;BME280;35869;50.990;6.962;2023-02-12T14:50:46;103435.44;;;11.05;97.58
49979;BME280;35869;50.990;6.962;2023-02-12T14:55:46;103432.00;;;11.03;97.29
49979;BME280;35869;50.990;6.962;2023-02-12T15:00:48;103429.38;;;11.00;97.34
49979;BME280;35869;50.990;6.962;2023-02-12T15:06:11;103429.38;;;11.00;97.97
49979;BME280;35869;50.990;6.962;2023-02-12T15:16:44;103426.84;;;10.86;98.37
49979;BME280;35869;50.990;6.962;2023-02-12T15:21:46;103423.38;;;10.86;98.58
49979;BME280;35869;50.990;6.962;2023-02-12T15:26:49;103416.44;;;10.85;98.35
49979;BME280;35869;50.990;6.962;2023-02-12T15:31:53;103419.03;;;10.80;98.46
49979;BME280;35869;50.990;6.962;2023-02-12T15:36:56;103417.28;;;10.82;98.09
49979;BME280;35869;50.990;6.962;2023-02-12T15:41:57;103417.31;;;10.72;98.62
49979;BME280;35869;50.990;6.962;2023-02-12T15:52:02;103408.63;;;10.66;98.62
49979;BME280;35869;50.990;6.962;2023-02-12T15:57:12;103412.13;;;10.62;98.38
49979;BME280;35869;50.990;6.962;2023-02-12T16:02:28;103406.94;;;10.58;98.59
49979;BME280;35869;50.990;6.962;2023-02-12T16:07:32;103405.19;;;10.52;98.36
49979;BME280;35869;50.990;6.962;2023-02-12T16:12:34;103397.41;;;10.51;98.35
49979;BME280;35869;50.990;6.962;2023-02-12T16:17:35;103400.88;;;10.50;98.41
49979;BME280;35869;50.990;6.962;2023-02-12T16:22:38;103394.81;;;10.41;98.92
49979;BME280;35869;50.990;6.962;2023-02-12T16:27:39;103401.75;;;10.38;98.76
49979;BME280;35869;50.990;6.962;2023-02-12T16:32:41;103403.50;;;10.33;98.81
49979;BME280;35869;50.990;6.962;2023-02-12T16:37:48;103406.06;;;10.30;98.67
49979;BME280;35869;50.990;6.962;2023-02-12T16:47:50;103412.97;;;10.19;98.78
49979;BME280;35869;50.990;6.962;2023-02-12T16:52:58;103413.84;;;10.16;99.12
49979;BME280;35869;50.990;6.962;2023-02-12T16:57:59;103413.84;;;10.10;99.11
49979;BME280;35869;50.990;6.962;2023-02-12T17:03:00;103418.16;;;10.06;99.16
49979;BME280;35869;50.990;6.962;2023-02-12T17:08:00;103423.34;;;10.00;99.22
49979;BME280;35869;50.990;6.962;2023-02-12T17:13:00;103425.09;;;9.98;99.00
49979;BME280;35869;50.990;6.962;2023-02-12T17:18:00;103417.28;;;9.92;99.22
49979;BME280;35869;50.990;6.962;2023-02-12T17:23:01;103425.06;;;9.86;99.55
49979;BME280;35869;50.990;6.962;2023-02-12T17:28:01;103427.66;;;9.81;99.39
49979;BME280;35869;50.990;6.962;2023-02-12T17:33:02;103430.22;;;9.78;99.50
49979;BME280;35869;50.990;6.962;2023-02-12T17:38:02;103435.41;;;9.71;99.46
49979;BME280;35869;50.990;6.962;2023-02-12T17:43:03;103439.75;;;9.73;99.00
49979;BME280;35869;50.990;6.962;2023-02-12T17:48:04;103439.72;;;9.66;99.33
49979;BME280;35869;50.990;6.962;2023-02-12T17:53:05;103448.38;;;9.63;99.77
49979;BME280;35869;50.990;6.962;2023-02-12T17:58:05;103448.34;;;9.55;99.72
49979;BME280;35869;50.990;6.962;2023-02-12T18:03:06;103451.81;;;9.53;99.88
49979;BME280;35869;50.990;6.962;2023-02-12T18:08:07;103443.13;;;9.48;99.71
49979;BME280;35869;50.990;6.962;2023-02-12T18:13:08;103440.50;;;9.42;100.00
49979;BME280;35869;50.990;6.962;2023-02-12T18:18:08;103444.81;;;9.41;99.84
49979;BME280;35869;50.990;6.962;2023-02-12T18:23:09;103445.66;;;9.37;100.00
49979;BME280;35869;50.990;6.962;2023-02-12T18:28:11;103442.19;;;9.32;100.00
49979;BME280;35869;50.990;6.962;2023-02-12T18:33:11;103443.03;;;9.29;100.00
49979;BME280;35869;50.990;6.962;2023-02-12T18:38:11;103437.00;;;9.27;100.00
49979;BME280;35869;50.990;6.962;2023-02-12T18:43:11;103436.97;;;9.24;100.00
49979;BME280;35869;50.990;6.962;2023-02-12T18:48:12;103432.63;;;9.23;99.33
49979;BME280;35869;50.990;6.962;2023-02-12T18:53:12;103437.78;;;9.19;99.58
49979;BME280;35869;50.990;6.962;2023-02-12T18:58:12;103433.47;;;9.15;98.18
49979;BME280;35869;50.990;6.962;2023-02-12T19:03:13;103435.16;;;9.14;97.92
49979;BME280;35869;50.990;6.962;2023-02-12T19:08:14;103431.78;;;9.21;96.50
49979;BME280;35869;50.990;6.962;2023-02-12T19:13:14;103436.94;;;9.15;95.80
49979;BME280;35869;50.990;6.962;2023-02-12T19:18:14;103443.00;;;9.16;96.01
49979;BME280;35869;50.990;6.962;2023-02-12T19:23:14;103433.44;;;9.10;96.56
49979;BME280;35869;50.990;6.962;2023-02-12T19:28:15;103430.81;;;9.08;96.56
49979;BME280;35869;50.990;6.962;2023-02-12T19:33:15;103431.69;;;9.03;96.96
49979;BME280;35869;50.990;6.962;2023-02-12T19:38:15;103432.50;;;9.02;97.04
49979;BME280;35869;50.990;6.962;2023-02-12T19:43:15;103432.50;;;9.02;96.73
49979;BME280;35869;50.990;6.962;2023-02-12T19:48:15;103437.69;;;8.97;97.02
49979;BME280;35869;50.990;6.962;2023-02-12T19:53:16;103430.78;;;8.98;97.15
49979;BME280;35869;50.990;6.962;2023-02-12T19:58:16;103432.50;;;8.97;97.43
49979;BME280;35869;50.990;6.962;2023-02-12T20:03:16;103426.44;;;8.92;98.49
49979;BME280;35869;50.990;6.962;2023-02-12T20:08:17;103420.34;;;8.90;99.61
49979;BME280;35869;50.990;6.962;2023-02-12T20:13:18;103430.72;;;8.89;99.08
49979;BME280;35869;50.990;6.962;2023-02-12T20:18:18;103431.56;;;8.88;99.35
49979;BME280;35869;50.990;6.962;2023-02-12T20:23:18;103422.03;;;8.84;99.81
49979;BME280;35869;50.990;6.962;2023-02-12T20:28:18;103423.75;;;8.83;100.00
49979;BME280;35869;50.990;6.962;2023-02-12T20:33:19;103423.75;;;8.80;100.00
49979;BME280;35869;50.990;6.962;2023-02-12T20:38:19;103421.13;;;8.78;100.00
49979;BME280;35869;50.990;6.962;2023-02-12T20:43:19;103423.72;;;8.75;100.00
49979;BME280;35869;50.990;6.962;2023-02-12T20:48:19;103421.97;;;8.73;100.00
49979;BME280;35869;50.990;6.962;2023-02-12T20:53:19;103417.63;;;8.73;99.53
49979;BME280;35869;50.990;6.962;2023-02-12T20:58:20;103418.50;;;8.71;100.00
49979;BME280;35869;50.990;6.962;2023-02-12T21:03:20;103428.88;;;8.68;100.00
49979;BME280;35869;50.990;6.962;2023-02-12T21:08:20;103427.97;;;8.67;99.90
49979;BME280;35869;50.990;6.962;2023-02-12T21:13:20;103434.88;;;8.64;99.69
49979;BME280;35869;50.990;6.962;2023-02-12T21:18:21;103430.56;;;8.66;99.29
49979;BME280;35869;50.990;6.962;2023-02-12T21:23:21;103433.16;;;8.67;98.76
49979;BME280;35869;50.990;6.962;2023-02-12T21:28:21;103431.41;;;8.65;99.14
49979;BME280;35869;50.990;6.962;2023-02-12T21:33:21;103425.38;;;8.63;99.26
49979;BME280;35869;50.990;6.962;2023-02-12T21:38:22;103428.78;;;8.62;98.91
49979;BME280;35869;50.990;6.962;2023-02-12T21:43:23;103428.78;;;8.60;99.04
49979;BME280;35869;50.990;6.962;2023-02-12T21:48:23;103427.09;;;8.62;98.42
49979;BME280;35869;50.990;6.962;2023-02-12T21:53:23;103426.19;;;8.59;98.45
49979;BME280;35869;50.990;6.962;2023-02-12T21:58:24;103428.75;;;8.55;99.22
49979;BME280;35869;50.990;6.962;2023-02-12T22:03:24;103426.19;;;8.57;99.01
49979;BME280;35869;50.990;6.962;2023-02-12T22:08:24;103425.31;;;8.57;98.91
49979;BME280;35869;50.990;6.962;2023-02-12T22:13:24;103427.88;;;8.50;97.72
49979;BME280;35869;50.990;6.962;2023-02-12T22:18:24;103433.06;;;8.53;97.97
49979;BME280;35869;50.990;6.962;2023-02-12T22:23:25;103433.94;;;8.55;97.96
49979;BME280;35869;50.990;6.962;2023-02-12T22:28:25;103420.09;;;8.53;97.96
49979;BME280;35869;50.990;6.962;2023-02-12T22:33:25;103422.69;;;8.52;98.41
49979;BME280;35869;50.990;6.962;2023-02-12T22:38:25;103419.19;;;8.50;98.28
49979;BME280;35869;50.990;6.962;2023-02-12T22:43:33;103415.78;;;8.55;97.17
49979;BME280;35869;50.990;6.962;2023-02-12T22:48:33;103427.84;;;8.49;98.17
49979;BME280;35869;50.990;6.962;2023-02-12T22:53:34;103422.63;;;8.44;98.19
49979;BME280;35869;50.990;6.962;2023-02-12T22:58:34;103430.47;;;8.50;97.07
49979;BME280;35869;50.990;6.962;2023-02-12T23:03:34;103434.69;;;8.42;97.31
49979;BME280;35869;50.990;6.962;2023-02-12T23:08:35;103439.91;;;8.45;98.62
49979;BME280;35869;50.990;6.962;2023-02-12T23:13:36;103435.59;;;8.44;98.21
49979;BME280;35869;50.990;6.962;2023-02-12T23:18:36;103435.59;;;8.44;97.64
49979;BME280;35869;50.990;6.962;2023-02-12T23:23:36;103434.72;;;8.45;97.12
49979;BME280;35869;50.990;6.962;2023-02-12T23:28:36;103426.06;;;8.43;97.91
49979;BME280;35869;50.990;6.962;2023-02-12T23:33:36;103433.84;;;8.43;97.38
49979;BME280;35869;50.990;6.962;2023-02-12T23:38:37;103433.00;;;8.46;96.96
49979;BME280;35869;50.990;6.962;2023-02-12T23:43:37;103437.34;;;8.47;97.94
49979;BME280;35869;50.990;6.962;2023-02-12T23:48:37;103425.06;;;8.32;96.96
49979;BME280;35869;50.990;6.962;2023-02-12T23:53:37;103415.69;;;8.39;97.60
49979;BME280;35869;50.990;6.962;2023-02-12T23:58:37;103412.19;;;8.38;97.50
